トロント/ピアソン の空港の天気 - METARとTAF

トロント・ピアソン国際空港 ( CYYZ / YYZ ) - カナダ オンタリオ州トロント
飛行場実況気象(Metar)
観測時間06/23 14:00 EDT (06/23 18:00 UTC)
風向・風速南東 4m/s
視程10km以上
天気現象
少しの雲 雲底高度 300m
全天の8割程度の雲 雲底高度 1520m
全天を覆う雲 雲底高度 3050m
気温22℃
湿度83%
気圧998.6hPa
METARCYYZ 231800Z 13008KT 15SM FEW010 BKN050 OVC100 22/19 A2949 RMK SC1SC4AC3 PRESFR SLP986 DENSITY ALT 2100FT
過去の天気等 Google飛行場航空写真 Wunderground天気予報

過去48時間のMETAR

飛行場予報(TAF)
発表時間: 6/23 13:38 EDT (6/23 17:38 UTC)
予報対象時間: 23日14時 EDT ~ 24日20時 EDT
風向・風速西南西 4m/s
視程10km以上
全天の4割程度の雲 雲底高度 240m
全天の8割程度の雲 雲底高度 760m
全天を覆う雲 雲底高度 3,050m
23日14時 EDT ~ 23日15時 EDT に一時的に
視程8,050m
天気現象弱いしゅう雨 もや
全天を覆う雲 雲底高度 240m
23日15時 EDT から
風向・風速西南西 5m/s 瞬間風速 10m/s
視程10km以上
天気現象弱いしゅう雨
全天の8割程度の雲 雲底高度 760m
23日17時 EDT から 確率 30% で
風向・風速不定 8m/s 瞬間風速 13m/s
視程4,830m
天気現象雷雨 もや
全天を覆う積乱雲 雲底高度 610m
23日19時 EDT から
風向・風速西北西 5m/s 瞬間風速 10m/s
視程10km以上
少しの雲 雲底高度 910m
23日22時 EDT から
風向・風速西 5m/s
視程10km以上
少しの雲 雲底高度 1,520m
24日10時 EDT から
風向・風速西 5m/s 瞬間風速 10m/s
視程10km以上
全天の4割程度の雲 雲底高度 1,520m
TAF CYYZ 231738Z 2318/2424 24008KT P6SM SCT008 BKN025 OVC100
TEMPO 2318/2319 5SM -SHRA BR OVC008
FM231900 24010G20KT P6SM -SHRA BKN025
PROB30 2321/2323 VRB15G25KT 3SM TSRA BR OVC020CB
FM232300 30010G20KT P6SM FEW030
FM240200 28010KT P6SM FEW050
FM241400 28010G20KT P6SM SCT050 RMK NXT FCST BY 232100Z